sensor_id;sensor_type;location;lat;lon;timestamp;temperature;humidity
27647;DHT22;42229;51.230;6.240;2023-08-24T00:00:48;20.30;65.70
27647;DHT22;42229;51.230;6.240;2023-08-24T00:03:14;20.30;65.60
27647;DHT22;42229;51.230;6.240;2023-08-24T00:05:40;20.30;64.80
27647;DHT22;42229;51.230;6.240;2023-08-24T00:08:07;20.30;65.10
27647;DHT22;42229;51.230;6.240;2023-08-24T00:10:34;20.30;65.60
27647;DHT22;42229;51.230;6.240;2023-08-24T00:13:01;20.20;65.10
27647;DHT22;42229;51.230;6.240;2023-08-24T00:15:28;20.20;65.10
27647;DHT22;42229;51.230;6.240;2023-08-24T00:17:55;20.20;65.10
27647;DHT22;42229;51.230;6.240;2023-08-24T00:20:22;20.20;65.20
27647;DHT22;42229;51.230;6.240;2023-08-24T00:22:48;20.20;65.50
27647;DHT22;42229;51.230;6.240;2023-08-24T00:25:14;20.10;65.50
27647;DHT22;42229;51.230;6.240;2023-08-24T00:27:41;20.10;65.40
27647;DHT22;42229;51.230;6.240;2023-08-24T00:30:07;20.10;65.40
27647;DHT22;42229;51.230;6.240;2023-08-24T00:32:34;20.00;65.50
27647;DHT22;42229;51.230;6.240;2023-08-24T00:35:04;20.00;65.70
27647;DHT22;42229;51.230;6.240;2023-08-24T00:37:34;20.00;65.90
27647;DHT22;42229;51.230;6.240;2023-08-24T00:40:00;19.90;65.70
27647;DHT22;42229;51.230;6.240;2023-08-24T00:42:29;19.90;65.90
27647;DHT22;42229;51.230;6.240;2023-08-24T00:44:57;19.90;66.00
27647;DHT22;42229;51.230;6.240;2023-08-24T00:47:24;19.90;66.10
27647;DHT22;42229;51.230;6.240;2023-08-24T00:49:50;19.80;66.90
27647;DHT22;42229;51.230;6.240;2023-08-24T00:52:17;19.80;66.40
27647;DHT22;42229;51.230;6.240;2023-08-24T00:54:44;19.80;66.40
27647;DHT22;42229;51.230;6.240;2023-08-24T00:57:10;19.80;66.40
27647;DHT22;42229;51.230;6.240;2023-08-24T00:59:37;19.70;66.40
27647;DHT22;42229;51.230;6.240;2023-08-24T01:02:04;19.70;66.50
27647;DHT22;42229;51.230;6.240;2023-08-24T01:04:30;19.60;66.50
27647;DHT22;42229;51.230;6.240;2023-08-24T01:06:57;19.60;67.20
27647;DHT22;42229;51.230;6.240;2023-08-24T01:09:23;19.60;67.40
27647;DHT22;42229;51.230;6.240;2023-08-24T01:12:00;19.60;67.30
27647;DHT22;42229;51.230;6.240;2023-08-24T01:17:25;19.60;67.30
27647;DHT22;42229;51.230;6.240;2023-08-24T01:19:54;19.50;67.30
27647;DHT22;42229;51.230;6.240;2023-08-24T01:24:54;19.50;67.30
27647;DHT22;42229;51.230;6.240;2023-08-24T01:27:27;19.50;67.40
27647;DHT22;42229;51.230;6.240;2023-08-24T01:29:55;19.40;67.60
27647;DHT22;42229;51.230;6.240;2023-08-24T01:32:24;19.40;67.60
27647;DHT22;42229;51.230;6.240;2023-08-24T01:34:51;19.40;67.80
27647;DHT22;42229;51.230;6.240;2023-08-24T01:37:17;19.40;67.90
27647;DHT22;42229;51.230;6.240;2023-08-24T01:42:31;19.30;68.00
27647;DHT22;42229;51.230;6.240;2023-08-24T01:44:59;19.30;68.10
27647;DHT22;42229;51.230;6.240;2023-08-24T01:47:29;19.30;68.20
27647;DHT22;42229;51.230;6.240;2023-08-24T01:49:56;19.30;68.20
27647;DHT22;42229;51.230;6.240;2023-08-24T01:52:22;19.30;67.90
27647;DHT22;42229;51.230;6.240;2023-08-24T01:54:49;19.30;68.40
27647;DHT22;42229;51.230;6.240;2023-08-24T01:57:16;19.30;68.50
27647;DHT22;42229;51.230;6.240;2023-08-24T01:59:43;19.20;68.60
27647;DHT22;42229;51.230;6.240;2023-08-24T02:02:09;19.20;69.20
27647;DHT22;42229;51.230;6.240;2023-08-24T02:04:35;19.20;69.30
27647;DHT22;42229;51.230;6.240;2023-08-24T02:07:02;19.20;68.80
27647;DHT22;42229;51.230;6.240;2023-08-24T02:09:28;19.20;68.90
27647;DHT22;42229;51.230;6.240;2023-08-24T02:11:54;19.20;68.90
27647;DHT22;42229;51.230;6.240;2023-08-24T02:14:20;19.20;69.10
27647;DHT22;42229;51.230;6.240;2023-08-24T02:16:47;19.20;69.70
27647;DHT22;42229;51.230;6.240;2023-08-24T02:19:14;19.10;70.70
27647;DHT22;42229;51.230;6.240;2023-08-24T02:21:40;19.10;72.00
27647;DHT22;42229;51.230;6.240;2023-08-24T02:24:06;19.10;72.20
27647;DHT22;42229;51.230;6.240;2023-08-24T02:26:32;19.20;74.50
27647;DHT22;42229;51.230;6.240;2023-08-24T02:28:59;19.10;73.50
27647;DHT22;42229;51.230;6.240;2023-08-24T02:31:25;19.20;72.80
27647;DHT22;42229;51.230;6.240;2023-08-24T02:33:51;19.20;73.50
27647;DHT22;42229;51.230;6.240;2023-08-24T02:36:18;19.20;72.00
27647;DHT22;42229;51.230;6.240;2023-08-24T02:38:44;19.20;72.30
27647;DHT22;42229;51.230;6.240;2023-08-24T02:41:10;19.20;71.60
27647;DHT22;42229;51.230;6.240;2023-08-24T02:43:36;19.20;71.60
27647;DHT22;42229;51.230;6.240;2023-08-24T02:46:05;19.20;71.60
27647;DHT22;42229;51.230;6.240;2023-08-24T02:48:32;19.20;71.70
27647;DHT22;42229;51.230;6.240;2023-08-24T02:50:59;19.30;71.80
27647;DHT22;42229;51.230;6.240;2023-08-24T02:53:26;19.30;71.80
27647;DHT22;42229;51.230;6.240;2023-08-24T02:55:54;19.30;71.70
27647;DHT22;42229;51.230;6.240;2023-08-24T02:58:21;19.40;72.00
27647;DHT22;42229;51.230;6.240;2023-08-24T03:00:48;19.40;72.10
27647;DHT22;42229;51.230;6.240;2023-08-24T03:03:14;19.40;72.20
27647;DHT22;42229;51.230;6.240;2023-08-24T03:05:41;19.40;72.10
27647;DHT22;42229;51.230;6.240;2023-08-24T03:08:17;19.50;72.20
27647;DHT22;42229;51.230;6.240;2023-08-24T03:10:45;19.50;72.50
27647;DHT22;42229;51.230;6.240;2023-08-24T03:13:11;19.60;72.60
27647;DHT22;42229;51.230;6.240;2023-08-24T03:15:39;19.60;74.00
27647;DHT22;42229;51.230;6.240;2023-08-24T03:18:05;19.60;75.40
27647;DHT22;42229;51.230;6.240;2023-08-24T03:20:32;19.60;75.20
27647;DHT22;42229;51.230;6.240;2023-08-24T03:22:58;19.70;75.60
27647;DHT22;42229;51.230;6.240;2023-08-24T03:25:24;19.70;77.40
27647;DHT22;42229;51.230;6.240;2023-08-24T03:27:52;19.70;78.00
27647;DHT22;42229;51.230;6.240;2023-08-24T03:30:18;19.70;77.30
27647;DHT22;42229;51.230;6.240;2023-08-24T03:32:44;19.70;76.70
27647;DHT22;42229;51.230;6.240;2023-08-24T03:35:12;19.70;77.90
27647;DHT22;42229;51.230;6.240;2023-08-24T03:37:38;19.70;75.80
27647;DHT22;42229;51.230;6.240;2023-08-24T03:40:04;19.70;75.30
27647;DHT22;42229;51.230;6.240;2023-08-24T03:42:32;19.70;75.90
27647;DHT22;42229;51.230;6.240;2023-08-24T03:44:59;19.70;75.70
27647;DHT22;42229;51.230;6.240;2023-08-24T03:47:25;19.70;76.10
27647;DHT22;42229;51.230;6.240;2023-08-24T03:49:51;19.70;74.40
27647;DHT22;42229;51.230;6.240;2023-08-24T03:52:17;19.80;74.40
27647;DHT22;42229;51.230;6.240;2023-08-24T03:54:44;19.80;74.10
27647;DHT22;42229;51.230;6.240;2023-08-24T03:57:11;19.80;74.20
27647;DHT22;42229;51.230;6.240;2023-08-24T03:59:37;19.80;73.90
27647;DHT22;42229;51.230;6.240;2023-08-24T04:02:03;19.80;74.40
27647;DHT22;42229;51.230;6.240;2023-08-24T04:04:29;19.80;75.50
27647;DHT22;42229;51.230;6.240;2023-08-24T04:06:56;19.80;74.20
27647;DHT22;42229;51.230;6.240;2023-08-24T04:09:22;19.80;75.30
27647;DHT22;42229;51.230;6.240;2023-08-24T04:11:48;19.80;76.70
27647;DHT22;42229;51.230;6.240;2023-08-24T04:14:15;19.80;76.80
27647;DHT22;42229;51.230;6.240;2023-08-24T04:16:41;19.80;78.70
27647;DHT22;42229;51.230;6.240;2023-08-24T04:19:08;19.80;77.20
27647;DHT22;42229;51.230;6.240;2023-08-24T04:21:34;19.70;76.10
27647;DHT22;42229;51.230;6.240;2023-08-24T04:24:01;19.70;75.70
27647;DHT22;42229;51.230;6.240;2023-08-24T04:26:27;19.70;75.20
27647;DHT22;42229;51.230;6.240;2023-08-24T04:28:53;19.70;75.20
27647;DHT22;42229;51.230;6.240;2023-08-24T04:31:19;19.80;75.30
27647;DHT22;42229;51.230;6.240;2023-08-24T04:33:46;19.70;76.90
27647;DHT22;42229;51.230;6.240;2023-08-24T04:36:12;19.70;76.80
27647;DHT22;42229;51.230;6.240;2023-08-24T04:38:38;19.70;76.80
27647;DHT22;42229;51.230;6.240;2023-08-24T04:41:06;19.70;76.50
27647;DHT22;42229;51.230;6.240;2023-08-24T04:43:34;19.80;77.50
27647;DHT22;42229;51.230;6.240;2023-08-24T04:46:01;19.70;77.00
27647;DHT22;42229;51.230;6.240;2023-08-24T04:48:27;19.80;76.90
27647;DHT22;42229;51.230;6.240;2023-08-24T04:50:58;19.80;77.30
27647;DHT22;42229;51.230;6.240;2023-08-24T04:53:25;19.80;77.40
27647;DHT22;42229;51.230;6.240;2023-08-24T04:55:52;19.80;76.80
27647;DHT22;42229;51.230;6.240;2023-08-24T04:58:18;19.80;78.00
27647;DHT22;42229;51.230;6.240;2023-08-24T05:00:44;19.80;80.40
27647;DHT22;42229;51.230;6.240;2023-08-24T05:03:11;19.90;79.70
27647;DHT22;42229;51.230;6.240;2023-08-24T05:05:37;19.80;82.00
27647;DHT22;42229;51.230;6.240;2023-08-24T05:08:04;19.90;83.90
27647;DHT22;42229;51.230;6.240;2023-08-24T05:10:37;19.90;82.70
27647;DHT22;42229;51.230;6.240;2023-08-24T05:13:03;19.80;82.30
27647;DHT22;42229;51.230;6.240;2023-08-24T05:15:30;19.90;82.30
27647;DHT22;42229;51.230;6.240;2023-08-24T05:17:56;19.90;81.20
27647;DHT22;42229;51.230;6.240;2023-08-24T05:20:25;19.90;81.00
27647;DHT22;42229;51.230;6.240;2023-08-24T05:22:52;19.90;80.50
27647;DHT22;42229;51.230;6.240;2023-08-24T05:25:21;19.90;79.80
27647;DHT22;42229;51.230;6.240;2023-08-24T05:27:48;19.90;79.70
27647;DHT22;42229;51.230;6.240;2023-08-24T05:30:14;19.90;81.30
27647;DHT22;42229;51.230;6.240;2023-08-24T05:32:40;19.90;80.30
27647;DHT22;42229;51.230;6.240;2023-08-24T05:35:07;19.90;81.00
27647;DHT22;42229;51.230;6.240;2023-08-24T05:37:34;19.90;81.10
27647;DHT22;42229;51.230;6.240;2023-08-24T05:40:01;19.90;81.20
27647;DHT22;42229;51.230;6.240;2023-08-24T05:42:28;19.90;84.50
27647;DHT22;42229;51.230;6.240;2023-08-24T05:44:54;19.90;83.00
27647;DHT22;42229;51.230;6.240;2023-08-24T05:47:20;20.00;82.70
27647;DHT22;42229;51.230;6.240;2023-08-24T05:49:46;20.00;83.20
27647;DHT22;42229;51.230;6.240;2023-08-24T05:52:13;20.00;89.20
27647;DHT22;42229;51.230;6.240;2023-08-24T05:54:39;20.00;87.50
27647;DHT22;42229;51.230;6.240;2023-08-24T05:57:05;20.00;88.30
27647;DHT22;42229;51.230;6.240;2023-08-24T05:59:32;20.10;87.50
27647;DHT22;42229;51.230;6.240;2023-08-24T06:01:59;20.10;87.90
27647;DHT22;42229;51.230;6.240;2023-08-24T06:04:25;20.10;91.50
27647;DHT22;42229;51.230;6.240;2023-08-24T06:06:51;20.10;89.80
27647;DHT22;42229;51.230;6.240;2023-08-24T06:09:17;20.10;87.30
27647;DHT22;42229;51.230;6.240;2023-08-24T06:11:44;20.20;90.60
27647;DHT22;42229;51.230;6.240;2023-08-24T06:14:10;20.20;90.80
27647;DHT22;42229;51.230;6.240;2023-08-24T06:16:36;20.20;91.30
27647;DHT22;42229;51.230;6.240;2023-08-24T06:19:02;20.30;91.10
27647;DHT22;42229;51.230;6.240;2023-08-24T06:21:29;20.40;91.10
27647;DHT22;42229;51.230;6.240;2023-08-24T06:23:55;20.40;90.30
27647;DHT22;42229;51.230;6.240;2023-08-24T06:26:21;20.50;90.00
27647;DHT22;42229;51.230;6.240;2023-08-24T06:28:48;20.60;90.40
27647;DHT22;42229;51.230;6.240;2023-08-24T06:31:14;20.60;91.60
27647;DHT22;42229;51.230;6.240;2023-08-24T06:33:42;20.70;92.30
27647;DHT22;42229;51.230;6.240;2023-08-24T06:36:08;20.80;89.10
27647;DHT22;42229;51.230;6.240;2023-08-24T06:38:34;20.90;88.60
27647;DHT22;42229;51.230;6.240;2023-08-24T06:41:01;20.90;89.00
27647;DHT22;42229;51.230;6.240;2023-08-24T06:43:27;21.00;89.40
27647;DHT22;42229;51.230;6.240;2023-08-24T06:45:56;21.10;90.90
27647;DHT22;42229;51.230;6.240;2023-08-24T06:48:23;21.20;90.70
27647;DHT22;42229;51.230;6.240;2023-08-24T06:50:49;21.30;91.20
27647;DHT22;42229;51.230;6.240;2023-08-24T06:53:15;21.40;91.00
27647;DHT22;42229;51.230;6.240;2023-08-24T06:55:41;21.50;92.20
27647;DHT22;42229;51.230;6.240;2023-08-24T06:58:08;21.60;91.30
27647;DHT22;42229;51.230;6.240;2023-08-24T07:00:34;21.60;90.70
27647;DHT22;42229;51.230;6.240;2023-08-24T07:03:01;21.70;90.60
27647;DHT22;42229;51.230;6.240;2023-08-24T07:05:27;21.70;91.00
27647;DHT22;42229;51.230;6.240;2023-08-24T07:07:54;21.80;91.30
27647;DHT22;42229;51.230;6.240;2023-08-24T07:10:21;21.90;91.40
27647;DHT22;42229;51.230;6.240;2023-08-24T07:12:47;22.00;91.10
27647;DHT22;42229;51.230;6.240;2023-08-24T07:15:13;22.10;91.40
27647;DHT22;42229;51.230;6.240;2023-08-24T07:17:39;22.20;91.60
27647;DHT22;42229;51.230;6.240;2023-08-24T07:20:06;22.30;91.10
27647;DHT22;42229;51.230;6.240;2023-08-24T07:22:34;22.40;91.00
27647;DHT22;42229;51.230;6.240;2023-08-24T07:25:00;22.50;91.90
27647;DHT22;42229;51.230;6.240;2023-08-24T07:27:33;22.60;91.60
27647;DHT22;42229;51.230;6.240;2023-08-24T07:30:01;22.70;91.40
27647;DHT22;42229;51.230;6.240;2023-08-24T07:32:31;22.90;92.00
27647;DHT22;42229;51.230;6.240;2023-08-24T07:34:58;23.00;92.10
27647;DHT22;42229;51.230;6.240;2023-08-24T07:37:27;23.10;91.50
27647;DHT22;42229;51.230;6.240;2023-08-24T07:39:53;23.20;92.00
27647;DHT22;42229;51.230;6.240;2023-08-24T07:42:19;23.30;92.00
27647;DHT22;42229;51.230;6.240;2023-08-24T07:44:47;23.50;91.40
27647;DHT22;42229;51.230;6.240;2023-08-24T07:47:14;23.60;91.70
27647;DHT22;42229;51.230;6.240;2023-08-24T07:49:40;23.70;91.80
27647;DHT22;42229;51.230;6.240;2023-08-24T07:52:12;23.90;92.00
27647;DHT22;42229;51.230;6.240;2023-08-24T07:54:38;24.00;92.10
27647;DHT22;42229;51.230;6.240;2023-08-24T07:57:05;24.10;92.10
27647;DHT22;42229;51.230;6.240;2023-08-24T07:59:32;24.30;91.60
27647;DHT22;42229;51.230;6.240;2023-08-24T08:01:58;24.40;91.60
27647;DHT22;42229;51.230;6.240;2023-08-24T08:04:24;24.60;92.10
27647;DHT22;42229;51.230;6.240;2023-08-24T08:06:51;24.70;92.50
27647;DHT22;42229;51.230;6.240;2023-08-24T08:09:17;24.90;92.60
27647;DHT22;42229;51.230;6.240;2023-08-24T08:11:43;25.10;92.20
27647;DHT22;42229;51.230;6.240;2023-08-24T08:14:09;25.20;92.00
27647;DHT22;42229;51.230;6.240;2023-08-24T08:16:36;25.40;92.00
27647;DHT22;42229;51.230;6.240;2023-08-24T08:19:02;25.50;91.80
27647;DHT22;42229;51.230;6.240;2023-08-24T08:21:28;25.70;92.00
27647;DHT22;42229;51.230;6.240;2023-08-24T08:23:56;25.80;92.00
27647;DHT22;42229;51.230;6.240;2023-08-24T08:26:22;26.00;92.20
27647;DHT22;42229;51.230;6.240;2023-08-24T08:28:48;26.10;91.80
27647;DHT22;42229;51.230;6.240;2023-08-24T08:31:14;26.20;91.80
27647;DHT22;42229;51.230;6.240;2023-08-24T08:33:41;26.30;91.80
27647;DHT22;42229;51.230;6.240;2023-08-24T08:36:07;26.50;91.80
27647;DHT22;42229;51.230;6.240;2023-08-24T08:38:33;26.60;92.10
27647;DHT22;42229;51.230;6.240;2023-08-24T08:41:03;26.70;92.00
27647;DHT22;42229;51.230;6.240;2023-08-24T08:43:30;26.80;92.10
27647;DHT22;42229;51.230;6.240;2023-08-24T08:45:56;26.90;92.10
27647;DHT22;42229;51.230;6.240;2023-08-24T08:48:23;27.10;92.10
27647;DHT22;42229;51.230;6.240;2023-08-24T08:50:51;27.20;92.20
27647;DHT22;42229;51.230;6.240;2023-08-24T08:53:20;27.30;92.00
27647;DHT22;42229;51.230;6.240;2023-08-24T08:55:47;27.40;91.90
27647;DHT22;42229;51.230;6.240;2023-08-24T08:58:15;27.50;91.70
27647;DHT22;42229;51.230;6.240;2023-08-24T09:00:41;27.70;91.70
27647;DHT22;42229;51.230;6.240;2023-08-24T09:03:07;27.80;91.70
27647;DHT22;42229;51.230;6.240;2023-08-24T09:05:34;27.80;91.80
27647;DHT22;42229;51.230;6.240;2023-08-24T09:08:02;27.90;91.80
27647;DHT22;42229;51.230;6.240;2023-08-24T09:10:30;28.00;91.80
27647;DHT22;42229;51.230;6.240;2023-08-24T09:12:57;28.10;91.70
27647;DHT22;42229;51.230;6.240;2023-08-24T09:15:24;28.20;91.50
27647;DHT22;42229;51.230;6.240;2023-08-24T09:17:52;28.40;91.50
27647;DHT22;42229;51.230;6.240;2023-08-24T09:20:20;28.40;91.60
27647;DHT22;42229;51.230;6.240;2023-08-24T09:22:47;28.50;91.50
27647;DHT22;42229;51.230;6.240;2023-08-24T09:25:13;28.70;91.40
27647;DHT22;42229;51.230;6.240;2023-08-24T09:27:39;28.80;91.40
27647;DHT22;42229;51.230;6.240;2023-08-24T09:30:07;28.80;90.90
27647;DHT22;42229;51.230;6.240;2023-08-24T09:32:33;28.90;90.90
27647;DHT22;42229;51.230;6.240;2023-08-24T09:35:03;29.00;91.20
27647;DHT22;42229;51.230;6.240;2023-08-24T09:37:34;29.20;91.20
27647;DHT22;42229;51.230;6.240;2023-08-24T09:40:01;29.20;90.80
27647;DHT22;42229;51.230;6.240;2023-08-24T09:42:36;29.30;90.40
27647;DHT22;42229;51.230;6.240;2023-08-24T09:45:04;29.40;90.60
27647;DHT22;42229;51.230;6.240;2023-08-24T09:47:31;29.50;90.80
27647;DHT22;42229;51.230;6.240;2023-08-24T09:49:58;29.60;91.10
27647;DHT22;42229;51.230;6.240;2023-08-24T09:52:25;29.70;90.70
27647;DHT22;42229;51.230;6.240;2023-08-24T09:54:54;29.80;91.20
27647;DHT22;42229;51.230;6.240;2023-08-24T09:57:21;30.00;91.10
27647;DHT22;42229;51.230;6.240;2023-08-24T09:59:47;30.10;91.00
27647;DHT22;42229;51.230;6.240;2023-08-24T10:02:15;30.20;91.20
27647;DHT22;42229;51.230;6.240;2023-08-24T10:04:46;30.30;90.60
27647;DHT22;42229;51.230;6.240;2023-08-24T10:07:14;30.40;91.00
27647;DHT22;42229;51.230;6.240;2023-08-24T10:09:47;30.50;90.40
27647;DHT22;42229;51.230;6.240;2023-08-24T10:12:20;30.50;90.50
27647;DHT22;42229;51.230;6.240;2023-08-24T10:14:53;30.60;89.00
27647;DHT22;42229;51.230;6.240;2023-08-24T10:17:22;30.70;86.60
27647;DHT22;42229;51.230;6.240;2023-08-24T10:19:50;30.70;86.80
27647;DHT22;42229;51.230;6.240;2023-08-24T10:22:18;30.70;88.80
27647;DHT22;42229;51.230;6.240;2023-08-24T10:24:46;30.70;88.50
27647;DHT22;42229;51.230;6.240;2023-08-24T10:27:13;30.80;88.80
27647;DHT22;42229;51.230;6.240;2023-08-24T10:29:40;30.80;89.00
27647;DHT22;42229;51.230;6.240;2023-08-24T10:32:06;30.80;88.80
27647;DHT22;42229;51.230;6.240;2023-08-24T10:34:34;30.80;87.10
27647;DHT22;42229;51.230;6.240;2023-08-24T10:37:09;30.90;89.50
27647;DHT22;42229;51.230;6.240;2023-08-24T10:39:37;31.00;89.40
27647;DHT22;42229;51.230;6.240;2023-08-24T10:42:04;31.00;89.70
27647;DHT22;42229;51.230;6.240;2023-08-24T10:44:35;31.10;89.80
27647;DHT22;42229;51.230;6.240;2023-08-24T10:47:35;31.10;88.50
27647;DHT22;42229;51.230;6.240;2023-08-24T10:52:24;31.20;89.40
27647;DHT22;42229;51.230;6.240;2023-08-24T10:54:52;31.20;87.20
27647;DHT22;42229;51.230;6.240;2023-08-24T10:57:21;31.30;88.20
27647;DHT22;42229;51.230;6.240;2023-08-24T11:02:25;31.30;88.40
27647;DHT22;42229;51.230;6.240;2023-08-24T11:05:05;31.30;87.50
27647;DHT22;42229;51.230;6.240;2023-08-24T11:07:32;31.20;85.40
27647;DHT22;42229;51.230;6.240;2023-08-24T11:10:10;31.20;86.10
27647;DHT22;42229;51.230;6.240;2023-08-24T11:15:39;30.90;86.60
27647;DHT22;42229;51.230;6.240;2023-08-24T11:18:12;30.70;87.40
27647;DHT22;42229;51.230;6.240;2023-08-24T11:20:51;30.70;87.60
27647;DHT22;42229;51.230;6.240;2023-08-24T11:23:18;30.60;87.70
27647;DHT22;42229;51.230;6.240;2023-08-24T11:25:45;30.40;87.80
27647;DHT22;42229;51.230;6.240;2023-08-24T11:28:16;30.40;88.10
27647;DHT22;42229;51.230;6.240;2023-08-24T11:30:42;30.30;88.20
27647;DHT22;42229;51.230;6.240;2023-08-24T11:33:09;30.20;88.30
27647;DHT22;42229;51.230;6.240;2023-08-24T11:35:37;30.20;88.50
27647;DHT22;42229;51.230;6.240;2023-08-24T11:38:12;30.10;88.50
27647;DHT22;42229;51.230;6.240;2023-08-24T11:41:09;29.90;89.40
27647;DHT22;42229;51.230;6.240;2023-08-24T11:43:36;29.80;88.50
27647;DHT22;42229;51.230;6.240;2023-08-24T11:46:02;29.70;88.20
27647;DHT22;42229;51.230;6.240;2023-08-24T11:48:29;29.50;88.40
27647;DHT22;42229;51.230;6.240;2023-08-24T11:57:28;28.70;90.20
27647;DHT22;42229;51.230;6.240;2023-08-24T12:00:08;28.50;91.10
27647;DHT22;42229;51.230;6.240;2023-08-24T12:03:00;28.20;90.70
27647;DHT22;42229;51.230;6.240;2023-08-24T12:05:27;27.80;92.30
27647;DHT22;42229;51.230;6.240;2023-08-24T12:07:54;27.40;91.40
27647;DHT22;42229;51.230;6.240;2023-08-24T12:10:30;27.00;90.50
27647;DHT22;42229;51.230;6.240;2023-08-24T12:16:24;26.30;90.00
27647;DHT22;42229;51.230;6.240;2023-08-24T12:18:51;25.90;90.50
27647;DHT22;42229;51.230;6.240;2023-08-24T12:22:03;25.70;91.00
27647;DHT22;42229;51.230;6.240;2023-08-24T12:24:29;25.50;91.30
27647;DHT22;42229;51.230;6.240;2023-08-24T12:26:55;25.40;91.70
27647;DHT22;42229;51.230;6.240;2023-08-24T12:29:43;25.40;91.30
27647;DHT22;42229;51.230;6.240;2023-08-24T12:32:20;25.40;91.60
27647;DHT22;42229;51.230;6.240;2023-08-24T12:34:49;25.50;94.30
27647;DHT22;42229;51.230;6.240;2023-08-24T12:37:17;25.60;96.00
27647;DHT22;42229;51.230;6.240;2023-08-24T12:39:43;25.60;94.10
27647;DHT22;42229;51.230;6.240;2023-08-24T12:42:09;25.80;95.20
27647;DHT22;42229;51.230;6.240;2023-08-24T12:44:36;25.90;94.40
27647;DHT22;42229;51.230;6.240;2023-08-24T12:47:02;26.00;96.70
27647;DHT22;42229;51.230;6.240;2023-08-24T12:49:29;26.10;95.10
27647;DHT22;42229;51.230;6.240;2023-08-24T12:51:55;26.20;94.60
27647;DHT22;42229;51.230;6.240;2023-08-24T12:54:21;26.30;94.20
27647;DHT22;42229;51.230;6.240;2023-08-24T12:56:48;26.50;93.90
27647;DHT22;42229;51.230;6.240;2023-08-24T12:59:14;26.60;95.40
27647;DHT22;42229;51.230;6.240;2023-08-24T13:01:40;26.70;95.70
27647;DHT22;42229;51.230;6.240;2023-08-24T13:04:07;26.90;95.90
27647;DHT22;42229;51.230;6.240;2023-08-24T13:06:33;26.90;96.10
27647;DHT22;42229;51.230;6.240;2023-08-24T13:09:00;27.00;95.80
27647;DHT22;42229;51.230;6.240;2023-08-24T13:11:26;27.10;96.10
27647;DHT22;42229;51.230;6.240;2023-08-24T13:13:52;27.10;96.30
27647;DHT22;42229;51.230;6.240;2023-08-24T13:16:18;27.10;95.30
27647;DHT22;42229;51.230;6.240;2023-08-24T13:18:45;27.10;94.80
27647;DHT22;42229;51.230;6.240;2023-08-24T13:21:11;27.10;94.90
27647;DHT22;42229;51.230;6.240;2023-08-24T13:23:37;27.10;96.10
27647;DHT22;42229;51.230;6.240;2023-08-24T13:26:03;27.10;96.80
27647;DHT22;42229;51.230;6.240;2023-08-24T13:28:30;27.10;97.00
27647;DHT22;42229;51.230;6.240;2023-08-24T13:30:56;27.00;95.80
27647;DHT22;42229;51.230;6.240;2023-08-24T13:33:22;27.00;95.70
27647;DHT22;42229;51.230;6.240;2023-08-24T13:35:48;27.00;96.40
27647;DHT22;42229;51.230;6.240;2023-08-24T13:38:14;27.00;95.90
27647;DHT22;42229;51.230;6.240;2023-08-24T13:40:41;26.90;97.20
27647;DHT22;42229;51.230;6.240;2023-08-24T13:43:07;26.90;95.80
27647;DHT22;42229;51.230;6.240;2023-08-24T13:45:34;26.90;96.00
27647;DHT22;42229;51.230;6.240;2023-08-24T13:48:00;26.90;96.10
27647;DHT22;42229;51.230;6.240;2023-08-24T13:50:26;26.90;96.40
27647;DHT22;42229;51.230;6.240;2023-08-24T13:52:53;26.90;97.00
27647;DHT22;42229;51.230;6.240;2023-08-24T13:55:19;26.80;96.10
27647;DHT22;42229;51.230;6.240;2023-08-24T13:57:45;26.80;97.80
27647;DHT22;42229;51.230;6.240;2023-08-24T14:00:11;26.80;97.10
27647;DHT22;42229;51.230;6.240;2023-08-24T14:02:41;26.70;97.40
27647;DHT22;42229;51.230;6.240;2023-08-24T14:05:08;26.60;97.20
27647;DHT22;42229;51.230;6.240;2023-08-24T14:07:35;26.60;96.80
27647;DHT22;42229;51.230;6.240;2023-08-24T14:10:01;26.50;96.80
27647;DHT22;42229;51.230;6.240;2023-08-24T14:12:28;26.40;96.10
27647;DHT22;42229;51.230;6.240;2023-08-24T14:14:56;26.40;96.10
27647;DHT22;42229;51.230;6.240;2023-08-24T14:17:22;26.30;97.00
27647;DHT22;42229;51.230;6.240;2023-08-24T14:19:48;26.30;96.80
27647;DHT22;42229;51.230;6.240;2023-08-24T14:22:15;26.20;96.20
27647;DHT22;42229;51.230;6.240;2023-08-24T14:24:41;26.10;96.70
27647;DHT22;42229;51.230;6.240;2023-08-24T14:27:07;26.00;96.40
27647;DHT22;42229;51.230;6.240;2023-08-24T14:29:33;26.00;96.00
27647;DHT22;42229;51.230;6.240;2023-08-24T14:31:59;25.90;97.50
27647;DHT22;42229;51.230;6.240;2023-08-24T14:34:26;25.80;98.30
27647;DHT22;42229;51.230;6.240;2023-08-24T14:36:52;25.80;97.20
27647;DHT22;42229;51.230;6.240;2023-08-24T14:39:19;25.70;97.60
27647;DHT22;42229;51.230;6.240;2023-08-24T14:41:45;25.60;97.30
27647;DHT22;42229;51.230;6.240;2023-08-24T14:44:11;25.50;97.20
27647;DHT22;42229;51.230;6.240;2023-08-24T14:46:38;25.50;97.80
27647;DHT22;42229;51.230;6.240;2023-08-24T14:49:04;25.40;97.80
27647;DHT22;42229;51.230;6.240;2023-08-24T14:51:31;25.30;98.40
27647;DHT22;42229;51.230;6.240;2023-08-24T14:53:57;25.20;97.70
27647;DHT22;42229;51.230;6.240;2023-08-24T14:56:23;25.10;99.40
27647;DHT22;42229;51.230;6.240;2023-08-24T14:58:49;25.00;97.80
27647;DHT22;42229;51.230;6.240;2023-08-24T15:01:15;24.80;99.90
27647;DHT22;42229;51.230;6.240;2023-08-24T15:03:43;24.70;97.90
27647;DHT22;42229;51.230;6.240;2023-08-24T15:06:09;24.50;98.50
27647;DHT22;42229;51.230;6.240;2023-08-24T15:08:36;24.40;97.90
27647;DHT22;42229;51.230;6.240;2023-08-24T15:11:02;24.30;98.50
27647;DHT22;42229;51.230;6.240;2023-08-24T15:13:29;24.20;99.90
27647;DHT22;42229;51.230;6.240;2023-08-24T15:15:57;24.10;99.90
27647;DHT22;42229;51.230;6.240;2023-08-24T15:18:23;24.00;99.00
27647;DHT22;42229;51.230;6.240;2023-08-24T15:20:50;23.90;99.70
27647;DHT22;42229;51.230;6.240;2023-08-24T15:23:20;23.80;98.70
27647;DHT22;42229;51.230;6.240;2023-08-24T15:25:47;23.70;98.60
27647;DHT22;42229;51.230;6.240;2023-08-24T15:28:13;23.70;98.20
27647;DHT22;42229;51.230;6.240;2023-08-24T15:30:39;23.70;98.80
27647;DHT22;42229;51.230;6.240;2023-08-24T15:33:05;23.60;99.90
27647;DHT22;42229;51.230;6.240;2023-08-24T15:35:31;23.60;99.90
27647;DHT22;42229;51.230;6.240;2023-08-24T15:37:58;23.50;99.90
27647;DHT22;42229;51.230;6.240;2023-08-24T15:40:25;23.50;99.60
27647;DHT22;42229;51.230;6.240;2023-08-24T15:42:55;23.50;99.90
27647;DHT22;42229;51.230;6.240;2023-08-24T15:45:21;23.50;99.90
27647;DHT22;42229;51.230;6.240;2023-08-24T15:47:47;23.50;99.40
27647;DHT22;42229;51.230;6.240;2023-08-24T15:50:14;23.50;99.70
27647;DHT22;42229;51.230;6.240;2023-08-24T15:52:40;23.50;99.90
27647;DHT22;42229;51.230;6.240;2023-08-24T15:55:06;23.40;99.90
27647;DHT22;42229;51.230;6.240;2023-08-24T15:57:33;23.40;99.90